TOBUS weather

Aviosuperficie Pegasus 2000
Busano (TO), Piedmont, Italy

Public forecast

Using degrees Celsius for public forecast. Weather courtesy of forecast.io.

METAR (pilot weather report)

Closest report is Turin Airport, 6.6 nm (12.2 km) S. Retrieved 2019/09/22 06:20 UTC (27 minutes ago):

LIMF 220620Z VRB02KT 8000 SCT035 BKN050 14/13 Q1020

TAF (pilot weather forecast)

Closest forecast is Turin Airport, 6.6 nm (12.2 km) S. Retrieved 2019/09/22 06:00 UTC (47 minutes ago):

TAF LIMF 220500Z 2206/2306 VRB05KT 9999 BKN050 TEMPO 2206/2209 RA TEMPO 2302/2306 3000 BR